Terminal Aerodrome Forecast
Issued by NWS

Home | Current Version | Previous Version | Graphics & Text | Print | Product List | Glossary On
Versions: 1 2 3 4 5 6 7 8 9 10 11 12 13 14 15 16 17 18 19 20 21 22
000
FTUS42 KMHX 261400 AAA
TAFOAJ
TAF AMD
KOAJ 261401Z 2614/2712 33012G20KT 4SM -RA OVC005
     FM261700 32015G20KT P6SM VCSH SCT007 OVC020
     FM262300 29005KT P6SM SCT025 BKN050
      AMD LTD TO CLD VIS AND WIND=

USA.gov is the U.S. government's official web portal to all federal, state and local government web resources and services.